createdAt,value
2018-09-08T00:01:07.650Z,59.80
2018-09-08T00:03:35.073Z,59.60
2018-09-08T00:06:02.573Z,59.50
2018-09-08T00:08:30.013Z,59.20
2018-09-08T00:10:57.463Z,59.00
2018-09-08T00:13:24.909Z,59.10
2018-09-08T00:15:58.016Z,59.30
2018-09-08T00:18:31.233Z,59.30
2018-09-08T00:21:04.211Z,59.40
2018-09-08T00:23:37.388Z,59.40
2018-09-08T00:26:10.399Z,59.40
2018-09-08T00:28:45.127Z,59.60
2018-09-08T00:31:15.676Z,59.60
2018-09-08T00:33:43.100Z,59.70
2018-09-08T00:36:10.549Z,59.80
2018-09-08T00:38:38.500Z,59.90
2018-09-08T00:41:06.032Z,59.70
2018-09-08T00:43:33.486Z,59.80
2018-09-08T00:46:01.151Z,59.60
2018-09-08T00:48:28.564Z,59.50
2018-09-08T00:50:55.986Z,59.40
2018-09-08T00:53:23.426Z,59.40
2018-09-08T00:55:50.833Z,59.40
2018-09-08T00:58:18.246Z,59.40
2018-09-08T01:00:45.680Z,59.40
2018-09-08T01:03:13.098Z,59.60
2018-09-08T01:05:40.513Z,59.60
2018-09-08T01:08:07.896Z,59.50
2018-09-08T01:10:35.353Z,59.70
2018-09-08T01:13:02.778Z,59.70
2018-09-08T01:15:30.199Z,59.60
2018-09-08T01:17:57.682Z,59.50
2018-09-08T01:20:25.182Z,60.40
2018-09-08T01:22:52.577Z,59.80
2018-09-08T01:25:20.025Z,59.90
2018-09-08T01:27:47.419Z,60.00
2018-09-08T01:30:14.864Z,59.90
2018-09-08T01:32:42.305Z,59.80
2018-09-08T01:35:09.802Z,59.70
2018-09-08T01:37:37.217Z,59.60
2018-09-08T01:40:05.488Z,59.40
2018-09-08T01:42:32.926Z,60.10
2018-09-08T01:45:00.329Z,59.40
2018-09-08T01:47:27.715Z,59.40
2018-09-08T01:49:55.139Z,59.30
2018-09-08T01:52:22.581Z,59.30
2018-09-08T01:54:50.017Z,59.20
2018-09-08T01:57:17.376Z,59.30
2018-09-08T01:59:44.829Z,59.30
2018-09-08T02:02:12.221Z,59.50
2018-09-08T02:04:39.647Z,59.60
2018-09-08T02:07:07.025Z,59.70
2018-09-08T02:09:34.465Z,59.80
2018-09-08T02:12:01.871Z,59.90
2018-09-08T02:14:29.297Z,60.00
2018-09-08T02:16:56.727Z,60.00
2018-09-08T02:19:24.163Z,60.10
2018-09-08T02:21:51.625Z,60.00
2018-09-08T02:24:19.032Z,60.10
2018-09-08T02:26:46.534Z,60.10
2018-09-08T02:29:13.975Z,60.40
2018-09-08T02:31:41.383Z,60.10
2018-09-08T02:34:08.782Z,59.80
2018-09-08T02:36:36.171Z,59.80
2018-09-08T02:39:04.694Z,59.90
2018-09-08T02:41:32.139Z,59.90
2018-09-08T02:43:59.601Z,59.90
2018-09-08T02:46:27.031Z,59.80
2018-09-08T02:48:54.411Z,59.90
2018-09-08T02:51:20.813Z,59.90
2018-09-08T02:53:47.183Z,60.00
2018-09-08T02:56:13.566Z,60.00
2018-09-08T02:58:39.980Z,60.00
2018-09-08T03:01:06.380Z,60.00
2018-09-08T03:03:32.781Z,59.90
2018-09-08T03:05:59.174Z,59.90
2018-09-08T03:08:25.586Z,60.00
2018-09-08T03:10:51.960Z,60.00
2018-09-08T03:13:18.370Z,60.10
2018-09-08T03:15:44.763Z,60.10
2018-09-08T03:18:11.168Z,60.20
2018-09-08T03:20:37.535Z,60.00
2018-09-08T03:23:03.922Z,60.00
2018-09-08T03:25:30.359Z,60.10
2018-09-08T03:27:56.816Z,60.10
2018-09-08T03:30:23.248Z,60.20
2018-09-08T03:32:49.666Z,60.20
2018-09-08T03:35:16.059Z,60.00
2018-09-08T03:37:42.468Z,60.00
2018-09-08T03:40:08.866Z,59.90
2018-09-08T03:42:35.280Z,60.00
2018-09-08T03:45:01.638Z,60.60
2018-09-08T03:47:28.036Z,59.90
2018-09-08T03:49:54.464Z,59.90
2018-09-08T03:52:20.838Z,59.90
2018-09-08T03:54:47.213Z,60.00
2018-09-08T03:57:13.614Z,60.00
2018-09-08T03:59:40.005Z,60.00
2018-09-08T04:02:07.209Z,60.00
2018-09-08T04:04:34.634Z,60.00
2018-09-08T04:07:02.063Z,60.10
2018-09-08T04:09:29.467Z,60.10
2018-09-08T04:11:56.869Z,60.20
2018-09-08T04:14:24.292Z,60.20
2018-09-08T04:16:51.688Z,60.20
2018-09-08T04:19:19.107Z,60.30
2018-09-08T04:21:46.502Z,60.30
2018-09-08T04:24:13.925Z,60.30
2018-09-08T04:26:41.347Z,60.30
2018-09-08T04:29:08.782Z,60.30
2018-09-08T04:31:36.163Z,60.30
2018-09-08T04:34:03.637Z,60.30
2018-09-08T04:36:31.025Z,60.30
2018-09-08T04:38:58.441Z,60.30
2018-09-08T04:41:25.853Z,60.40
2018-09-08T04:43:53.283Z,60.30
2018-09-08T04:46:20.665Z,60.50
2018-09-08T04:48:48.049Z,60.50
2018-09-08T04:51:15.490Z,61.40
2018-09-08T04:53:42.901Z,60.60
2018-09-08T04:56:10.325Z,60.60
2018-09-08T04:58:37.715Z,60.60
2018-09-08T05:01:05.275Z,60.60
2018-09-08T05:03:32.735Z,60.70
2018-09-08T05:06:00.137Z,60.70
2018-09-08T05:08:27.537Z,60.80
2018-09-08T05:10:54.949Z,60.90
2018-09-08T05:13:22.353Z,60.80
2018-09-08T05:15:49.755Z,61.00
2018-09-08T05:18:17.194Z,61.00
2018-09-08T05:20:44.570Z,61.10
2018-09-08T05:23:11.985Z,61.20
2018-09-08T05:25:39.421Z,61.30
2018-09-08T05:28:06.831Z,61.40
2018-09-08T05:30:34.215Z,61.50
2018-09-08T05:33:01.669Z,61.60
2018-09-08T05:35:29.070Z,61.60
2018-09-08T05:37:56.549Z,61.70
2018-09-08T05:40:23.953Z,61.90
2018-09-08T05:42:51.431Z,61.90
2018-09-08T05:45:18.801Z,61.90
2018-09-08T05:47:46.257Z,61.70
2018-09-08T05:50:13.687Z,61.80
2018-09-08T05:52:41.113Z,61.80
2018-09-08T05:55:08.505Z,61.80
2018-09-08T05:57:35.916Z,62.70
2018-09-08T06:00:03.418Z,61.80
2018-09-08T06:02:30.831Z,61.70
2018-09-08T06:04:58.271Z,61.90
2018-09-08T06:07:25.703Z,62.60
2018-09-08T06:09:53.112Z,61.90
2018-09-08T06:12:20.560Z,62.00
2018-09-08T06:14:47.950Z,62.10
2018-09-08T06:17:15.522Z,62.30
2018-09-08T06:19:42.982Z,62.30
2018-09-08T06:22:10.384Z,62.50
2018-09-08T06:24:37.824Z,62.30
2018-09-08T06:27:05.554Z,62.30
2018-09-08T06:29:32.985Z,62.30
2018-09-08T06:32:00.428Z,62.30
2018-09-08T06:34:27.835Z,62.20
2018-09-08T06:36:55.290Z,62.10
2018-09-08T06:39:22.750Z,61.90
2018-09-08T06:41:50.184Z,62.00
2018-09-08T06:44:17.600Z,61.90
2018-09-08T06:46:45.070Z,61.70
2018-09-08T06:49:12.490Z,61.70
2018-09-08T06:51:39.922Z,61.60
2018-09-08T06:54:07.476Z,61.70
2018-09-08T06:56:34.878Z,61.60
2018-09-08T06:59:02.351Z,62.50
2018-09-08T07:01:29.790Z,61.50
2018-09-08T07:03:57.488Z,61.50
2018-09-08T07:06:24.958Z,61.30
2018-09-08T07:08:52.404Z,61.20
2018-09-08T07:11:19.829Z,61.10
2018-09-08T07:13:47.338Z,61.00
2018-09-08T07:16:14.767Z,60.00
2018-09-08T07:18:42.204Z,59.80
2018-09-08T07:21:09.641Z,60.10
2018-09-08T07:23:37.044Z,59.70
2018-09-08T07:26:04.539Z,59.90
2018-09-08T07:28:32.582Z,59.70
2018-09-08T07:31:00.081Z,59.60
2018-09-08T07:33:27.996Z,59.50
2018-09-08T07:35:55.433Z,59.10
2018-09-08T07:38:22.836Z,58.70
2018-09-08T07:40:50.469Z,58.60
2018-09-08T07:43:17.876Z,58.40
2018-09-08T07:45:45.305Z,58.80
2018-09-08T07:48:12.707Z,58.90
2018-09-08T07:50:40.306Z,58.90
2018-09-08T07:53:07.815Z,58.80
2018-09-08T07:55:35.271Z,58.30
2018-09-08T07:58:02.710Z,57.90
2018-09-08T08:00:30.115Z,58.20
2018-09-08T08:02:57.616Z,58.00
2018-09-08T08:05:25.086Z,57.60
2018-09-08T08:07:52.495Z,57.50
2018-09-08T08:10:19.947Z,57.80
2018-09-08T08:12:47.433Z,58.50
2018-09-08T08:15:14.857Z,57.40
2018-09-08T08:17:42.335Z,57.00
2018-09-08T08:20:09.777Z,57.10
2018-09-08T08:22:37.271Z,56.80
2018-09-08T08:25:04.745Z,57.00
2018-09-08T08:27:32.216Z,57.00
2018-09-08T08:29:59.936Z,56.90
2018-09-08T08:32:27.388Z,56.90
2018-09-08T08:34:54.810Z,56.90
2018-09-08T08:37:22.209Z,56.60
2018-09-08T08:39:49.966Z,56.50
2018-09-08T08:42:17.416Z,56.30
2018-09-08T08:44:44.992Z,56.50
2018-09-08T08:47:12.418Z,56.30
2018-09-08T08:49:40.089Z,55.50
2018-09-08T08:52:18.919Z,55.20
2018-09-08T08:54:48.156Z,55.20
2018-09-08T08:57:16.074Z,55.00
2018-09-08T08:59:43.482Z,54.60
2018-09-08T09:02:10.959Z,54.30
2018-09-08T09:04:38.628Z,54.10
2018-09-08T09:07:06.137Z,53.90
2018-09-08T09:09:33.566Z,53.60
2018-09-08T09:12:01.028Z,53.70
2018-09-08T09:14:29.018Z,53.70
2018-09-08T09:16:55.987Z,53.50
2018-09-08T09:19:37.132Z,53.70
2018-09-08T09:22:17.340Z,53.30
2018-09-08T09:24:56.647Z,52.90
2018-09-08T09:27:24.566Z,53.00
2018-09-08T09:29:52.303Z,52.10
2018-09-08T09:32:19.946Z,51.90
2018-09-08T09:34:47.391Z,51.60
2018-09-08T09:37:14.873Z,51.30
2018-09-08T09:39:42.269Z,51.60
2018-09-08T09:42:09.760Z,51.80
2018-09-08T09:44:37.204Z,52.30
2018-09-08T09:47:04.701Z,51.80
2018-09-08T09:49:32.193Z,51.80
2018-09-08T09:51:59.692Z,52.40
2018-09-08T09:54:27.232Z,53.40
2018-09-08T09:56:54.662Z,54.20
2018-09-08T09:59:22.221Z,54.00
2018-09-08T10:01:55.504Z,53.70
2018-09-08T10:04:23.102Z,52.80
2018-09-08T10:06:51.102Z,52.50
2018-09-08T10:09:18.850Z,51.50
2018-09-08T10:11:46.664Z,50.90
2018-09-08T10:14:14.364Z,49.80
2018-09-08T10:16:41.835Z,48.90
2018-09-08T10:19:09.304Z,47.20
2018-09-08T10:21:36.758Z,46.30
2018-09-08T10:24:05.154Z,44.90
2018-09-08T10:26:31.711Z,43.90
2018-09-08T10:28:59.117Z,42.30
2018-09-08T10:31:26.557Z,41.10
2018-09-08T10:33:54.072Z,39.90
2018-09-08T10:36:21.557Z,38.70
2018-09-08T10:38:49.043Z,37.80
2018-09-08T10:41:16.441Z,37.00
2018-09-08T10:43:43.962Z,36.70
2018-09-08T10:46:11.343Z,37.60
2018-09-08T10:48:38.773Z,37.60
2018-09-08T10:52:15.221Z,37.90
2018-09-08T10:54:42.642Z,37.40
2018-09-08T10:57:10.072Z,36.60
2018-09-08T10:59:37.491Z,36.10
2018-09-08T11:02:05.113Z,35.00
2018-09-08T11:04:32.443Z,34.20
2018-09-08T11:06:59.863Z,33.60
2018-09-08T11:09:27.281Z,32.80
2018-09-08T11:11:54.691Z,32.40
2018-09-08T11:14:22.140Z,32.10
2018-09-08T11:16:49.577Z,31.30
2018-09-08T11:19:16.995Z,31.70
2018-09-08T11:21:44.400Z,32.70
2018-09-08T11:24:11.836Z,33.10
2018-09-08T11:26:39.264Z,33.30
2018-09-08T11:29:06.724Z,33.60
2018-09-08T11:31:34.128Z,34.20
2018-09-08T11:34:01.711Z,35.10
2018-09-08T11:36:29.145Z,35.00
2018-09-08T11:38:56.553Z,35.10
2018-09-08T11:41:23.967Z,35.20
2018-09-08T11:43:51.375Z,35.50
2018-09-08T11:46:18.795Z,36.10
2018-09-08T11:48:46.311Z,36.10
2018-09-08T11:51:13.727Z,36.70
2018-09-08T11:53:41.179Z,36.80
2018-09-08T11:56:08.661Z,37.00
2018-09-08T11:58:36.899Z,37.30
2018-09-08T12:01:04.450Z,37.90
2018-09-08T12:03:31.871Z,38.20
2018-09-08T12:05:59.403Z,37.90
2018-09-08T12:08:26.847Z,37.50
2018-09-08T12:10:54.291Z,37.50
2018-09-08T12:13:21.706Z,38.00
2018-09-08T12:15:49.147Z,38.40
2018-09-08T12:18:17.351Z,37.70
2018-09-08T12:20:44.890Z,37.50
2018-09-08T12:23:12.372Z,38.00
2018-09-08T12:25:41.817Z,38.70
2018-09-08T12:28:09.307Z,39.00
2018-09-08T12:30:36.862Z,39.10
2018-09-08T12:33:04.496Z,38.90
2018-09-08T12:35:34.312Z,39.20
2018-09-08T12:38:01.879Z,39.20
2018-09-08T12:40:29.868Z,39.10
2018-09-08T12:42:57.312Z,38.70
2018-09-08T12:45:24.741Z,39.00
2018-09-08T12:47:52.232Z,39.10
2018-09-08T12:50:19.668Z,39.10
2018-09-08T12:52:47.098Z,39.50
2018-09-08T12:55:14.564Z,39.30
2018-09-08T12:57:42.007Z,39.90
2018-09-08T13:00:09.434Z,39.50
2018-09-08T13:02:36.942Z,40.00
2018-09-08T13:05:04.456Z,39.50
2018-09-08T13:07:31.969Z,39.70
2018-09-08T13:09:59.482Z,39.50
2018-09-08T13:12:26.928Z,39.00
2018-09-08T13:14:54.346Z,38.60
2018-09-08T13:17:21.787Z,38.90
2018-09-08T13:19:49.249Z,38.40
2018-09-08T13:22:16.779Z,38.00
2018-09-08T13:24:44.225Z,37.80
2018-09-08T13:27:11.680Z,37.80
2018-09-08T13:29:39.336Z,37.50
2018-09-08T13:32:06.783Z,37.40
2018-09-08T13:34:34.177Z,37.20
2018-09-08T13:37:01.674Z,38.00
2018-09-08T13:39:29.122Z,37.60
2018-09-08T13:41:56.577Z,37.60
2018-09-08T13:44:25.208Z,37.80
2018-09-08T13:46:52.686Z,38.10
2018-09-08T13:49:20.147Z,36.50
2018-09-08T13:51:47.586Z,37.80
2018-09-08T13:54:15.118Z,38.00
2018-09-08T13:56:42.552Z,38.60
2018-09-08T13:59:10.047Z,38.10
2018-09-08T14:01:37.509Z,38.20
2018-09-08T14:04:05.157Z,38.10
2018-09-08T14:06:32.661Z,38.00
2018-09-08T14:09:00.206Z,37.80
2018-09-08T14:11:27.657Z,37.70
2018-09-08T14:13:55.107Z,37.30
2018-09-08T14:16:22.579Z,37.50
2018-09-08T14:18:50.118Z,37.20
2018-09-08T14:21:17.541Z,37.60
2018-09-08T14:23:44.971Z,37.90
2018-09-08T14:26:12.490Z,38.20
2018-09-08T14:28:40.045Z,38.00
2018-09-08T14:31:07.463Z,38.50
2018-09-08T14:33:34.901Z,38.90
2018-09-08T14:36:02.283Z,39.00
2018-09-08T14:38:29.697Z,39.40
2018-09-08T14:40:57.124Z,38.70
2018-09-08T14:43:24.573Z,38.40
2018-09-08T14:45:52.017Z,38.40
2018-09-08T14:48:19.465Z,38.40
2018-09-08T14:50:46.891Z,38.50
2018-09-08T14:53:14.330Z,38.00
2018-09-08T14:55:41.728Z,38.20
2018-09-08T14:58:09.178Z,38.30
2018-09-08T15:00:36.589Z,38.50
2018-09-08T15:03:04.127Z,38.20
2018-09-08T15:05:32.189Z,38.20
2018-09-08T15:07:59.648Z,37.80
2018-09-08T15:10:27.068Z,37.70
2018-09-08T15:12:54.497Z,37.60
2018-09-08T15:15:21.966Z,37.30
2018-09-08T15:17:49.434Z,37.50
2018-09-08T15:20:16.869Z,37.30
2018-09-08T15:22:44.352Z,37.50
2018-09-08T15:25:11.774Z,37.40
2018-09-08T15:27:39.200Z,37.70
2018-09-08T15:30:07.678Z,37.80
2018-09-08T15:32:35.080Z,37.60
2018-09-08T15:35:02.533Z,37.70
2018-09-08T15:37:30.608Z,37.60
2018-09-08T15:39:58.100Z,37.30
2018-09-08T15:42:25.575Z,36.40
2018-09-08T15:44:53.068Z,35.90
2018-09-08T15:47:20.528Z,35.70
2018-09-08T15:49:47.948Z,35.70
2018-09-08T15:52:16.365Z,35.50
2018-09-08T15:54:43.831Z,35.10
2018-09-08T15:57:11.242Z,34.60
2018-09-08T15:59:38.718Z,34.30
2018-09-08T16:02:06.144Z,34.10
2018-09-08T16:04:33.629Z,34.20
2018-09-08T16:07:01.024Z,33.90
2018-09-08T16:09:29.416Z,33.70
2018-09-08T16:11:56.888Z,33.60
2018-09-08T16:14:24.437Z,33.60
2018-09-08T16:16:51.818Z,33.90
2018-09-08T16:19:19.250Z,34.40
2018-09-08T16:21:46.758Z,34.50
2018-09-08T16:24:14.222Z,34.70
2018-09-08T16:26:41.662Z,34.90
2018-09-08T16:29:09.097Z,35.00
2018-09-08T16:31:36.565Z,35.50
2018-09-08T16:34:04.646Z,35.90
2018-09-08T16:36:32.134Z,36.00
2018-09-08T16:38:59.549Z,36.40
2018-09-08T16:41:26.963Z,36.80
2018-09-08T16:43:54.417Z,37.10
2018-09-08T16:46:22.410Z,37.20
2018-09-08T16:48:49.860Z,37.80
2018-09-08T16:51:18.379Z,37.80
2018-09-08T16:53:45.812Z,38.00
2018-09-08T16:56:13.490Z,37.00
2018-09-08T16:58:41.111Z,38.50
2018-09-08T17:01:08.535Z,38.80
2018-09-08T17:03:36.019Z,38.80
2018-09-08T17:06:03.467Z,38.90
2018-09-08T17:08:30.945Z,39.10
2018-09-08T17:10:58.483Z,39.40
2018-09-08T17:13:25.968Z,39.50
2018-09-08T17:15:53.425Z,39.70
2018-09-08T17:18:20.982Z,39.90
2018-09-08T17:20:48.477Z,40.10
2018-09-08T17:23:15.968Z,40.40
2018-09-08T17:25:44.358Z,40.50
2018-09-08T17:28:12.009Z,40.80
2018-09-08T17:30:39.483Z,40.90
2018-09-08T17:33:06.979Z,41.00
2018-09-08T17:35:34.634Z,41.20
2018-09-08T17:38:02.113Z,41.30
2018-09-08T17:40:29.601Z,41.70
2018-09-08T17:42:57.191Z,41.60
2018-09-08T17:45:25.069Z,42.00
2018-09-08T17:47:52.527Z,42.10
2018-09-08T17:50:19.988Z,42.20
2018-09-08T17:52:47.393Z,42.30
2018-09-08T17:55:14.886Z,42.30
2018-09-08T17:57:42.928Z,42.70
2018-09-08T18:00:11.688Z,42.70
2018-09-08T18:02:39.202Z,42.90
2018-09-08T18:05:06.765Z,43.00
2018-09-08T18:07:34.292Z,43.20
2018-09-08T18:10:02.387Z,43.20
2018-09-08T18:12:29.869Z,43.40
2018-09-08T18:14:57.316Z,43.60
2018-09-08T18:17:24.923Z,43.70
2018-09-08T18:19:52.334Z,43.90
2018-09-08T18:22:19.840Z,44.00
2018-09-08T18:24:53.765Z,44.10
2018-09-08T18:27:21.193Z,44.30
2018-09-08T18:29:48.633Z,44.60
2018-09-08T18:32:16.129Z,44.20
2018-09-08T18:34:43.576Z,44.80
2018-09-08T18:37:11.049Z,45.00
2018-09-08T18:39:38.616Z,45.20
2018-09-08T18:42:06.061Z,45.00
2018-09-08T18:44:33.914Z,45.50
2018-09-08T18:47:01.381Z,45.60
2018-09-08T18:49:29.392Z,45.80
2018-09-08T18:51:57.611Z,46.00
2018-09-08T18:54:25.132Z,46.10
2018-09-08T18:56:52.596Z,46.20
2018-09-08T18:59:20.071Z,46.50
2018-09-08T19:01:47.700Z,46.20
2018-09-08T19:04:15.230Z,46.70
2018-09-08T19:06:42.687Z,46.80
2018-09-08T19:09:10.168Z,46.90
2018-09-08T19:11:38.208Z,47.00
2018-09-08T19:14:09.091Z,47.20
2018-09-08T19:16:36.778Z,47.20
2018-09-08T19:19:04.339Z,47.30
2018-09-08T19:21:31.789Z,47.50
2018-09-08T19:24:04.969Z,47.60
2018-09-08T19:26:32.492Z,47.70
2018-09-08T19:29:05.686Z,47.80
2018-09-08T19:31:33.118Z,48.40
2018-09-08T19:34:00.585Z,48.00
2018-09-08T19:36:28.006Z,48.10
2018-09-08T19:38:55.450Z,48.30
2018-09-08T19:41:22.976Z,48.40
2018-09-08T19:43:50.435Z,48.40
2018-09-08T19:46:23.666Z,48.60
2018-09-08T19:48:51.130Z,48.70
2018-09-08T19:51:19.588Z,48.70
2018-09-08T19:53:52.698Z,48.90
2018-09-08T19:56:25.065Z,49.00
2018-09-08T19:58:56.987Z,49.30
2018-09-08T20:01:24.462Z,49.40
2018-09-08T20:03:52.178Z,49.50
2018-09-08T20:06:19.748Z,49.50
2018-09-08T20:08:47.262Z,49.70
2018-09-08T20:11:14.795Z,49.70
2018-09-08T20:13:42.551Z,49.70
2018-09-08T20:16:10.958Z,49.90
2018-09-08T20:18:38.502Z,50.00
2018-09-08T20:21:06.019Z,50.10
2018-09-08T20:23:33.481Z,50.20
2018-09-08T20:26:00.932Z,50.20
2018-09-08T20:28:28.365Z,50.40
2018-09-08T20:30:55.966Z,50.40
2018-09-08T20:33:23.507Z,50.50
2018-09-08T20:35:50.955Z,50.50
2018-09-08T20:38:18.450Z,50.60
2018-09-08T20:40:45.904Z,50.80
2018-09-08T20:43:13.723Z,50.90
2018-09-08T20:45:42.795Z,50.90
2018-09-08T20:48:11.731Z,51.00
2018-09-08T20:50:39.406Z,51.10
2018-09-08T20:53:06.936Z,51.10
2018-09-08T20:55:35.375Z,51.20
2018-09-08T20:58:04.477Z,51.10
2018-09-08T21:00:32.042Z,51.30
2018-09-08T21:02:59.568Z,51.40
2018-09-08T21:05:27.233Z,51.40
2018-09-08T21:07:54.688Z,51.60
2018-09-08T21:10:22.157Z,51.50
2018-09-08T21:12:49.713Z,51.70
2018-09-08T21:15:17.162Z,53.30
2018-09-08T21:17:44.812Z,51.90
2018-09-08T21:20:12.346Z,51.90
2018-09-08T21:22:39.823Z,52.00
2018-09-08T21:25:07.334Z,52.70
2018-09-08T21:27:34.920Z,52.10
2018-09-08T21:30:02.464Z,52.20
2018-09-08T21:32:29.932Z,52.20
2018-09-08T21:34:57.378Z,52.30
2018-09-08T21:37:24.896Z,52.40
2018-09-08T21:39:54.021Z,52.40
2018-09-08T21:42:21.427Z,51.50
2018-09-08T21:44:50.502Z,52.60
2018-09-08T21:47:17.914Z,52.50
2018-09-08T21:49:45.467Z,52.70
2018-09-08T21:52:12.945Z,52.70
2018-09-08T21:54:40.428Z,52.70
2018-09-08T21:57:07.874Z,52.80
2018-09-08T21:59:35.368Z,52.80
2018-09-08T22:02:02.823Z,52.90
2018-09-08T22:04:30.279Z,52.90
2018-09-08T22:06:57.724Z,52.90
2018-09-08T22:09:25.284Z,53.00
2018-09-08T22:11:52.889Z,53.00
2018-09-08T22:14:21.043Z,53.10
2018-09-08T22:16:48.546Z,52.70
2018-09-08T22:19:16.031Z,53.10
2018-09-08T22:21:43.638Z,53.20
2018-09-08T22:24:11.139Z,53.20
2018-09-08T22:26:38.628Z,53.20
2018-09-08T22:29:06.211Z,53.20
2018-09-08T22:31:33.661Z,53.20
2018-09-08T22:34:01.052Z,53.20
2018-09-08T22:36:28.479Z,53.80
2018-09-08T22:38:55.953Z,53.20
2018-09-08T22:41:23.524Z,53.20
2018-09-08T22:43:51.033Z,53.10
2018-09-08T22:46:20.327Z,53.10
2018-09-08T22:48:47.785Z,53.70
2018-09-08T22:51:16.084Z,53.10
2018-09-08T22:53:43.485Z,53.10
2018-09-08T22:56:10.971Z,53.10
2018-09-08T22:58:38.407Z,53.20
2018-09-08T23:01:05.893Z,53.20
2018-09-08T23:03:33.408Z,53.20
2018-09-08T23:06:00.949Z,53.30
2018-09-08T23:08:28.565Z,53.30
2018-09-08T23:10:56.039Z,53.40
2018-09-08T23:13:23.506Z,53.40
2018-09-08T23:15:51.300Z,53.40
2018-09-08T23:18:18.766Z,53.40
2018-09-08T23:20:46.219Z,53.40
2018-09-08T23:23:13.679Z,53.50
2018-09-08T23:25:41.123Z,53.50
2018-09-08T23:28:08.587Z,53.60
2018-09-08T23:30:36.041Z,53.60
2018-09-08T23:33:03.485Z,53.60
2018-09-08T23:35:30.927Z,53.60
2018-09-08T23:37:58.359Z,53.60
2018-09-08T23:40:25.777Z,53.60
2018-09-08T23:42:53.207Z,53.70
2018-09-08T23:45:21.315Z,53.70
2018-09-08T23:47:48.767Z,53.80
2018-09-08T23:50:16.290Z,53.80
2018-09-08T23:52:43.641Z,53.80
2018-09-08T23:55:11.298Z,53.90
2018-09-08T23:57:38.724Z,53.90
